sensor_id;sensor_type;location;lat;lon;timestamp;pressure;altitude;pressure_sealevel;temperature
69785;BMP280;14177;51.520;6.764;2023-08-06T00:02:06;100222.13;;;16.64
69785;BMP280;14177;51.520;6.764;2023-08-06T00:04:33;100228.31;;;16.63
69785;BMP280;14177;51.520;6.764;2023-08-06T00:07:00;100224.97;;;16.61
69785;BMP280;14177;51.520;6.764;2023-08-06T00:09:27;100214.00;;;16.55
69785;BMP280;14177;51.520;6.764;2023-08-06T00:11:54;100218.59;;;16.51
69785;BMP280;14177;51.520;6.764;2023-08-06T00:14:21;100217.94;;;16.48
69785;BMP280;14177;51.520;6.764;2023-08-06T00:16:48;100220.88;;;16.43
69785;BMP280;14177;51.520;6.764;2023-08-06T00:19:15;100207.97;;;16.40
69785;BMP280;14177;51.520;6.764;2023-08-06T00:21:42;100204.47;;;16.40
69785;BMP280;14177;51.520;6.764;2023-08-06T00:24:09;100200.09;;;16.40
69785;BMP280;14177;51.520;6.764;2023-08-06T00:26:35;100190.44;;;16.41
69785;BMP280;14177;51.520;6.764;2023-08-06T00:29:02;100195.59;;;16.42
69785;BMP280;14177;51.520;6.764;2023-08-06T00:31:30;100194.66;;;16.43
69785;BMP280;14177;51.520;6.764;2023-08-06T00:33:56;100191.94;;;16.45
69785;BMP280;14177;51.520;6.764;2023-08-06T00:36:23;100185.00;;;16.44
69785;BMP280;14177;51.520;6.764;2023-08-06T00:38:50;100190.16;;;16.45
69785;BMP280;14177;51.520;6.764;2023-08-06T00:41:17;100196.34;;;16.44
69785;BMP280;14177;51.520;6.764;2023-08-06T00:43:44;100186.78;;;16.43
69785;BMP280;14177;51.520;6.764;2023-08-06T00:46:11;100177.25;;;16.42
69785;BMP280;14177;51.520;6.764;2023-08-06T00:48:39;100179.88;;;16.42
69785;BMP280;14177;51.520;6.764;2023-08-06T00:51:11;100178.94;;;16.43
69785;BMP280;14177;51.520;6.764;2023-08-06T00:53:39;100184.19;;;16.43
69785;BMP280;14177;51.520;6.764;2023-08-06T00:56:08;100177.25;;;16.42
69785;BMP280;14177;51.520;6.764;2023-08-06T00:58:37;100186.69;;;16.45
69785;BMP280;14177;51.520;6.764;2023-08-06T01:01:05;100171.81;;;16.45
69785;BMP280;14177;51.520;6.764;2023-08-06T01:03:32;100170.88;;;16.46
69785;BMP280;14177;51.520;6.764;2023-08-06T01:06:00;100173.38;;;16.48
69785;BMP280;14177;51.520;6.764;2023-08-06T01:11:44;100165.81;;;16.43
69785;BMP280;14177;51.520;6.764;2023-08-06T01:17:14;100157.31;;;16.40
69785;BMP280;14177;51.520;6.764;2023-08-06T01:19:41;100156.47;;;16.39
69785;BMP280;14177;51.520;6.764;2023-08-06T01:22:07;100161.72;;;16.39
69785;BMP280;14177;51.520;6.764;2023-08-06T01:24:35;100152.16;;;16.38
69785;BMP280;14177;51.520;6.764;2023-08-06T01:27:33;100155.00;;;16.35
69785;BMP280;14177;51.520;6.764;2023-08-06T01:30:20;100165.47;;;16.35
69785;BMP280;14177;51.520;6.764;2023-08-06T01:32:54;100166.41;;;16.34
69785;BMP280;14177;51.520;6.764;2023-08-06T01:35:28;100162.09;;;16.33
69785;BMP280;14177;51.520;6.764;2023-08-06T01:38:00;100156.88;;;16.33
69785;BMP280;14177;51.520;6.764;2023-08-06T01:40:29;100157.81;;;16.32
69785;BMP280;14177;51.520;6.764;2023-08-06T01:42:56;100156.03;;;16.33
69785;BMP280;14177;51.520;6.764;2023-08-06T01:45:23;100156.88;;;16.33
69785;BMP280;14177;51.520;6.764;2023-08-06T01:47:50;100164.66;;;16.35
69785;BMP280;14177;51.520;6.764;2023-08-06T01:50:17;100157.72;;;16.34
69785;BMP280;14177;51.520;6.764;2023-08-06T01:52:44;100148.94;;;16.35
69785;BMP280;14177;51.520;6.764;2023-08-06T01:55:11;100149.75;;;16.35
69785;BMP280;14177;51.520;6.764;2023-08-06T01:57:38;100158.53;;;16.34
69785;BMP280;14177;51.520;6.764;2023-08-06T02:00:06;100153.31;;;16.34
69785;BMP280;14177;51.520;6.764;2023-08-06T02:02:38;100153.41;;;16.33
69785;BMP280;14177;51.520;6.764;2023-08-06T02:05:09;100155.94;;;16.34
69785;BMP280;14177;51.520;6.764;2023-08-06T02:07:36;100149.00;;;16.33
69785;BMP280;14177;51.520;6.764;2023-08-06T02:10:05;100150.03;;;16.31
69785;BMP280;14177;51.520;6.764;2023-08-06T02:12:33;100145.91;;;16.27
69785;BMP280;14177;51.520;6.764;2023-08-06T02:15:00;100142.44;;;16.26
69785;BMP280;14177;51.520;6.764;2023-08-06T02:17:27;100145.16;;;16.25
69785;BMP280;14177;51.520;6.764;2023-08-06T02:19:54;100142.63;;;16.23
69785;BMP280;14177;51.520;6.764;2023-08-06T02:22:21;100146.19;;;16.22
69785;BMP280;14177;51.520;6.764;2023-08-06T02:24:49;100148.81;;;16.22
69785;BMP280;14177;51.520;6.764;2023-08-06T02:27:16;100146.31;;;16.21
69785;BMP280;14177;51.520;6.764;2023-08-06T02:29:43;100141.88;;;16.21
69785;BMP280;14177;51.520;6.764;2023-08-06T02:32:11;100144.50;;;16.21
69785;BMP280;14177;51.520;6.764;2023-08-06T02:34:38;100137.50;;;16.22
69785;BMP280;14177;51.520;6.764;2023-08-06T02:37:05;100135.72;;;16.22
69785;BMP280;14177;51.520;6.764;2023-08-06T02:39:32;100132.34;;;16.20
69785;BMP280;14177;51.520;6.764;2023-08-06T02:42:00;100123.75;;;16.18
69785;BMP280;14177;51.520;6.764;2023-08-06T02:44:30;100121.31;;;16.15
69785;BMP280;14177;51.520;6.764;2023-08-06T02:46:57;100123.19;;;16.13
69785;BMP280;14177;51.520;6.764;2023-08-06T02:49:25;100124.97;;;16.13
69785;BMP280;14177;51.520;6.764;2023-08-06T02:51:52;100122.44;;;16.11
69785;BMP280;14177;51.520;6.764;2023-08-06T02:54:20;100123.38;;;16.10
69785;BMP280;14177;51.520;6.764;2023-08-06T02:56:47;100118.34;;;16.07
69785;BMP280;14177;51.520;6.764;2023-08-06T02:59:23;100116.66;;;16.06
69785;BMP280;14177;51.520;6.764;2023-08-06T03:02:04;100107.22;;;16.04
69785;BMP280;14177;51.520;6.764;2023-08-06T03:04:49;100110.66;;;16.04
69785;BMP280;14177;51.520;6.764;2023-08-06T03:07:18;100111.59;;;16.03
69785;BMP280;14177;51.520;6.764;2023-08-06T03:09:52;100106.38;;;16.03
69785;BMP280;14177;51.520;6.764;2023-08-06T03:12:20;100102.91;;;16.03
69785;BMP280;14177;51.520;6.764;2023-08-06T03:14:48;100096.84;;;16.02
69785;BMP280;14177;51.520;6.764;2023-08-06T03:17:16;100096.13;;;16.00
69785;BMP280;14177;51.520;6.764;2023-08-06T03:19:43;100094.44;;;15.99
69785;BMP280;14177;51.520;6.764;2023-08-06T03:22:11;100098.00;;;15.98
69785;BMP280;14177;51.520;6.764;2023-08-06T03:24:39;100094.44;;;15.99
69785;BMP280;14177;51.520;6.764;2023-08-06T03:27:07;100091.91;;;15.98
69785;BMP280;14177;51.520;6.764;2023-08-06T03:29:36;100094.44;;;15.99
69785;BMP280;14177;51.520;6.764;2023-08-06T03:32:03;100101.34;;;16.00
69785;BMP280;14177;51.520;6.764;2023-08-06T03:34:31;100097.78;;;16.01
69785;BMP280;14177;51.520;6.764;2023-08-06T03:36:57;100101.13;;;16.03
69785;BMP280;14177;51.520;6.764;2023-08-06T03:39:26;100094.25;;;16.02
69785;BMP280;14177;51.520;6.764;2023-08-06T03:41:53;100098.50;;;16.03
69785;BMP280;14177;51.520;6.764;2023-08-06T03:44:21;100101.03;;;16.05
69785;BMP280;14177;51.520;6.764;2023-08-06T03:46:48;100094.88;;;16.06
69785;BMP280;14177;51.520;6.764;2023-08-06T03:49:15;100094.00;;;16.05
69785;BMP280;14177;51.520;6.764;2023-08-06T03:51:42;100085.41;;;16.03
69785;BMP280;14177;51.520;6.764;2023-08-06T03:54:09;100089.72;;;16.04
69785;BMP280;14177;51.520;6.764;2023-08-06T03:56:36;100097.69;;;16.03
69785;BMP280;14177;51.520;6.764;2023-08-06T03:59:03;100093.38;;;16.02
69785;BMP280;14177;51.520;6.764;2023-08-06T04:01:30;100097.06;;;15.99
69785;BMP280;14177;51.520;6.764;2023-08-06T04:03:57;100094.44;;;15.99
69785;BMP280;14177;51.520;6.764;2023-08-06T04:06:24;100095.44;;;15.97
69785;BMP280;14177;51.520;6.764;2023-08-06T04:08:52;100094.69;;;15.95
69785;BMP280;14177;51.520;6.764;2023-08-06T04:11:18;100093.97;;;15.93
69785;BMP280;14177;51.520;6.764;2023-08-06T04:13:45;100095.00;;;15.90
69785;BMP280;14177;51.520;6.764;2023-08-06T04:16:12;100091.66;;;15.88
69785;BMP280;14177;51.520;6.764;2023-08-06T04:18:41;100085.66;;;15.86
69785;BMP280;14177;51.520;6.764;2023-08-06T04:21:08;100090.03;;;15.86
69785;BMP280;14177;51.520;6.764;2023-08-06T04:23:35;100087.53;;;15.84
69785;BMP280;14177;51.520;6.764;2023-08-06T04:26:05;100085.84;;;15.83
69785;BMP280;14177;51.520;6.764;2023-08-06T04:28:34;100079.88;;;15.82
69785;BMP280;14177;51.520;6.764;2023-08-06T04:31:01;100082.56;;;15.80
69785;BMP280;14177;51.520;6.764;2023-08-06T04:33:31;100085.28;;;15.79
69785;BMP280;14177;51.520;6.764;2023-08-06T04:36:01;100088.84;;;15.78
69785;BMP280;14177;51.520;6.764;2023-08-06T04:38:28;100087.16;;;15.77
69785;BMP280;14177;51.520;6.764;2023-08-06T04:40:57;100083.63;;;15.78
69785;BMP280;14177;51.520;6.764;2023-08-06T04:43:25;100091.28;;;15.81
69785;BMP280;14177;51.520;6.764;2023-08-06T04:45:54;100089.50;;;15.81
69785;BMP280;14177;51.520;6.764;2023-08-06T04:48:22;100096.22;;;15.85
69785;BMP280;14177;51.520;6.764;2023-08-06T04:50:50;100091.44;;;15.91
69785;BMP280;14177;51.520;6.764;2023-08-06T04:53:17;100091.06;;;15.97
69785;BMP280;14177;51.520;6.764;2023-08-06T04:55:44;100090.88;;;16.00
69785;BMP280;14177;51.520;6.764;2023-08-06T04:58:13;100088.25;;;16.00
69785;BMP280;14177;51.520;6.764;2023-08-06T05:00:40;100094.25;;;16.02
69785;BMP280;14177;51.520;6.764;2023-08-06T05:03:07;100096.56;;;16.07
69785;BMP280;14177;51.520;6.764;2023-08-06T05:05:34;100099.25;;;16.05
69785;BMP280;14177;51.520;6.764;2023-08-06T05:08:01;100103.34;;;16.09
69785;BMP280;14177;51.520;6.764;2023-08-06T05:10:28;100103.09;;;16.14
69785;BMP280;14177;51.520;6.764;2023-08-06T05:12:55;100101.09;;;16.17
69785;BMP280;14177;51.520;6.764;2023-08-06T05:15:22;100096.41;;;16.22
69785;BMP280;14177;51.520;6.764;2023-08-06T05:17:49;100096.00;;;16.28
69785;BMP280;14177;51.520;6.764;2023-08-06T05:20:16;100099.22;;;16.33
69785;BMP280;14177;51.520;6.764;2023-08-06T05:22:43;100096.31;;;16.38
69785;BMP280;14177;51.520;6.764;2023-08-06T05:25:13;100105.53;;;16.43
69785;BMP280;14177;51.520;6.764;2023-08-06T05:27:40;100099.97;;;16.48
69785;BMP280;14177;51.520;6.764;2023-08-06T05:30:08;100106.81;;;16.50
69785;BMP280;14177;51.520;6.764;2023-08-06T05:32:35;100105.16;;;16.49
69785;BMP280;14177;51.520;6.764;2023-08-06T05:35:03;100112.06;;;16.50
69785;BMP280;14177;51.520;6.764;2023-08-06T05:37:30;100113.63;;;16.53
69785;BMP280;14177;51.520;6.764;2023-08-06T05:39:57;100113.56;;;16.54
69785;BMP280;14177;51.520;6.764;2023-08-06T05:42:24;100126.34;;;16.59
69785;BMP280;14177;51.520;6.764;2023-08-06T05:44:51;100117.53;;;16.60
69785;BMP280;14177;51.520;6.764;2023-08-06T05:47:18;100120.06;;;16.61
69785;BMP280;14177;51.520;6.764;2023-08-06T05:49:46;100120.69;;;16.65
69785;BMP280;14177;51.520;6.764;2023-08-06T05:52:13;100124.91;;;16.67
69785;BMP280;14177;51.520;6.764;2023-08-06T05:54:40;100128.09;;;16.72
69785;BMP280;14177;51.520;6.764;2023-08-06T05:57:07;100125.97;;;16.77
69785;BMP280;14177;51.520;6.764;2023-08-06T05:59:34;100130.19;;;16.80
69785;BMP280;14177;51.520;6.764;2023-08-06T06:02:01;100131.66;;;16.84
69785;BMP280;14177;51.520;6.764;2023-08-06T06:04:28;100137.53;;;16.87
69785;BMP280;14177;51.520;6.764;2023-08-06T06:06:55;100134.63;;;16.92
69785;BMP280;14177;51.520;6.764;2023-08-06T06:09:22;100139.47;;;16.98
69785;BMP280;14177;51.520;6.764;2023-08-06T06:11:49;100133.81;;;17.04
69785;BMP280;14177;51.520;6.764;2023-08-06T06:14:20;100134.97;;;17.12
69785;BMP280;14177;51.520;6.764;2023-08-06T06:16:47;100135.28;;;17.20
69785;BMP280;14177;51.520;6.764;2023-08-06T06:19:14;100139.06;;;17.28
69785;BMP280;14177;51.520;6.764;2023-08-06T06:21:41;100133.44;;;17.34
69785;BMP280;14177;51.520;6.764;2023-08-06T06:24:08;100136.28;;;17.44
69785;BMP280;14177;51.520;6.764;2023-08-06T06:26:35;100140.69;;;17.43
69785;BMP280;14177;51.520;6.764;2023-08-06T06:29:02;100134.91;;;17.38
69785;BMP280;14177;51.520;6.764;2023-08-06T06:31:31;100140.75;;;17.29
69785;BMP280;14177;51.520;6.764;2023-08-06T06:33:58;100141.06;;;17.25
69785;BMP280;14177;51.520;6.764;2023-08-06T06:36:25;100152.50;;;17.24
69785;BMP280;14177;51.520;6.764;2023-08-06T06:38:52;100146.84;;;17.30
69785;BMP280;14177;51.520;6.764;2023-08-06T06:41:20;100155.09;;;17.38
69785;BMP280;14177;51.520;6.764;2023-08-06T06:43:47;100158.84;;;17.46
69785;BMP280;14177;51.520;6.764;2023-08-06T06:46:13;100159.03;;;17.56
69785;BMP280;14177;51.520;6.764;2023-08-06T06:48:40;100151.59;;;17.62
69785;BMP280;14177;51.520;6.764;2023-08-06T06:51:07;100149.38;;;17.69
69785;BMP280;14177;51.520;6.764;2023-08-06T06:53:34;100154.84;;;17.78
69785;BMP280;14177;51.520;6.764;2023-08-06T06:56:03;100164.09;;;17.84
69785;BMP280;14177;51.520;6.764;2023-08-06T06:58:33;100155.78;;;17.90
69785;BMP280;14177;51.520;6.764;2023-08-06T07:01:00;100155.44;;;17.94
69785;BMP280;14177;51.520;6.764;2023-08-06T07:03:27;100164.25;;;17.93
69785;BMP280;14177;51.520;6.764;2023-08-06T07:05:58;100157.31;;;17.92
69785;BMP280;14177;51.520;6.764;2023-08-06T07:08:26;100160.25;;;18.00
69785;BMP280;14177;51.520;6.764;2023-08-06T07:11:04;100154.69;;;18.05
69785;BMP280;14177;51.520;6.764;2023-08-06T07:13:32;100156.16;;;18.09
69785;BMP280;14177;51.520;6.764;2023-08-06T07:15:59;100160.56;;;18.21
69785;BMP280;14177;51.520;6.764;2023-08-06T07:18:26;100157.03;;;18.33
69785;BMP280;14177;51.520;6.764;2023-08-06T07:20:55;100162.22;;;18.34
69785;BMP280;14177;51.520;6.764;2023-08-06T07:23:25;100152.06;;;18.40
69785;BMP280;14177;51.520;6.764;2023-08-06T07:25:52;100157.84;;;18.45
69785;BMP280;14177;51.520;6.764;2023-08-06T07:28:19;100167.94;;;18.51
69785;BMP280;14177;51.520;6.764;2023-08-06T07:30:47;100162.22;;;18.57
69785;BMP280;14177;51.520;6.764;2023-08-06T07:33:14;100161.56;;;18.66
69785;BMP280;14177;51.520;6.764;2023-08-06T07:35:41;100167.41;;;18.70
69785;BMP280;14177;51.520;6.764;2023-08-06T07:38:10;100163.81;;;18.71
69785;BMP280;14177;51.520;6.764;2023-08-06T07:40:36;100166.19;;;18.63
69785;BMP280;14177;51.520;6.764;2023-08-06T07:43:04;100171.91;;;18.57
69785;BMP280;14177;51.520;6.764;2023-08-06T07:45:35;100166.41;;;18.60
69785;BMP280;14177;51.520;6.764;2023-08-06T07:48:03;100172.06;;;18.66
69785;BMP280;14177;51.520;6.764;2023-08-06T07:50:31;100171.63;;;18.72
69785;BMP280;14177;51.520;6.764;2023-08-06T07:52:58;100172.44;;;18.73
69785;BMP280;14177;51.520;6.764;2023-08-06T07:55:25;100169.22;;;18.69
69785;BMP280;14177;51.520;6.764;2023-08-06T07:57:53;100165.84;;;18.67
69785;BMP280;14177;51.520;6.764;2023-08-06T08:00:20;100176.19;;;18.58
69785;BMP280;14177;51.520;6.764;2023-08-06T08:02:48;100174.63;;;18.55
69785;BMP280;14177;51.520;6.764;2023-08-06T08:05:15;100185.53;;;18.62
69785;BMP280;14177;51.520;6.764;2023-08-06T08:07:42;100173.53;;;18.70
69785;BMP280;14177;51.520;6.764;2023-08-06T08:10:10;100180.97;;;18.76
69785;BMP280;14177;51.520;6.764;2023-08-06T08:12:38;100185.66;;;18.84
69785;BMP280;14177;51.520;6.764;2023-08-06T08:15:05;100183.75;;;18.86
69785;BMP280;14177;51.520;6.764;2023-08-06T08:17:32;100183.75;;;18.86
69785;BMP280;14177;51.520;6.764;2023-08-06T08:20:01;100182.72;;;18.88
69785;BMP280;14177;51.520;6.764;2023-08-06T08:22:28;100176.38;;;18.91
69785;BMP280;14177;51.520;6.764;2023-08-06T08:24:55;100180.31;;;18.96
69785;BMP280;14177;51.520;6.764;2023-08-06T08:27:22;100180.09;;;18.99
69785;BMP280;14177;51.520;6.764;2023-08-06T08:29:49;100178.19;;;19.01
69785;BMP280;14177;51.520;6.764;2023-08-06T08:32:16;100190.28;;;19.04
69785;BMP280;14177;51.520;6.764;2023-08-06T08:34:43;100184.69;;;19.08
69785;BMP280;14177;51.520;6.764;2023-08-06T08:37:11;100186.06;;;19.14
69785;BMP280;14177;51.520;6.764;2023-08-06T08:39:37;100193.38;;;19.21
69785;BMP280;14177;51.520;6.764;2023-08-06T08:42:06;100180.47;;;19.29
69785;BMP280;14177;51.520;6.764;2023-08-06T08:44:34;100186.94;;;19.36
69785;BMP280;14177;51.520;6.764;2023-08-06T08:47:08;100194.16;;;19.45
69785;BMP280;14177;51.520;6.764;2023-08-06T08:49:37;100189.88;;;19.55
69785;BMP280;14177;51.520;6.764;2023-08-06T08:52:05;100196.59;;;19.59
69785;BMP280;14177;51.520;6.764;2023-08-06T08:54:38;100194.41;;;19.53
69785;BMP280;14177;51.520;6.764;2023-08-06T08:57:06;100193.78;;;19.50
69785;BMP280;14177;51.520;6.764;2023-08-06T08:59:34;100189.13;;;19.42
69785;BMP280;14177;51.520;6.764;2023-08-06T09:02:01;100202.03;;;19.34
69785;BMP280;14177;51.520;6.764;2023-08-06T09:04:31;100209.44;;;19.29
69785;BMP280;14177;51.520;6.764;2023-08-06T09:07:05;100205.59;;;19.22
69785;BMP280;14177;51.520;6.764;2023-08-06T09:09:36;100212.88;;;19.19
69785;BMP280;14177;51.520;6.764;2023-08-06T09:12:22;100215.84;;;19.14
69785;BMP280;14177;51.520;6.764;2023-08-06T09:14:49;100210.78;;;19.11
69785;BMP280;14177;51.520;6.764;2023-08-06T09:17:17;100215.31;;;19.09
69785;BMP280;14177;51.520;6.764;2023-08-06T09:19:47;100211.84;;;19.09
69785;BMP280;14177;51.520;6.764;2023-08-06T09:22:15;100213.19;;;19.14
69785;BMP280;14177;51.520;6.764;2023-08-06T09:24:43;100211.78;;;19.21
69785;BMP280;14177;51.520;6.764;2023-08-06T09:27:14;100216.72;;;19.26
69785;BMP280;14177;51.520;6.764;2023-08-06T09:29:43;100214.56;;;19.31
69785;BMP280;14177;51.520;6.764;2023-08-06T09:32:12;100224.53;;;19.38
69785;BMP280;14177;51.520;6.764;2023-08-06T09:34:42;100222.63;;;19.40
69785;BMP280;14177;51.520;6.764;2023-08-06T09:37:10;100229.13;;;19.47
69785;BMP280;14177;51.520;6.764;2023-08-06T09:39:39;100225.88;;;19.44
69785;BMP280;14177;51.520;6.764;2023-08-06T09:42:09;100225.75;;;19.45
69785;BMP280;14177;51.520;6.764;2023-08-06T09:44:38;100226.59;;;19.46
69785;BMP280;14177;51.520;6.764;2023-08-06T09:47:07;100226.00;;;19.42
69785;BMP280;14177;51.520;6.764;2023-08-06T09:52:01;100219.38;;;19.37
69785;BMP280;14177;51.520;6.764;2023-08-06T09:54:28;100223.81;;;19.36
69785;BMP280;14177;51.520;6.764;2023-08-06T09:56:57;100230.63;;;19.39
69785;BMP280;14177;51.520;6.764;2023-08-06T09:59:24;100230.31;;;19.43
69785;BMP280;14177;51.520;6.764;2023-08-06T10:01:53;100234.72;;;19.43
69785;BMP280;14177;51.520;6.764;2023-08-06T10:04:21;100230.31;;;19.43
69785;BMP280;14177;51.520;6.764;2023-08-06T10:06:53;100235.44;;;19.45
69785;BMP280;14177;51.520;6.764;2023-08-06T10:09:20;100232.09;;;19.43
69785;BMP280;14177;51.520;6.764;2023-08-06T10:11:51;100236.31;;;19.45
69785;BMP280;14177;51.520;6.764;2023-08-06T10:14:26;100240.38;;;19.49
69785;BMP280;14177;51.520;6.764;2023-08-06T10:16:57;100228.44;;;19.56
69785;BMP280;14177;51.520;6.764;2023-08-06T10:19:26;100228.31;;;19.68
69785;BMP280;14177;51.520;6.764;2023-08-06T10:22:15;100232.66;;;19.80
69785;BMP280;14177;51.520;6.764;2023-08-06T10:24:50;100225.25;;;19.85
69785;BMP280;14177;51.520;6.764;2023-08-06T10:27:33;100230.03;;;19.91
69785;BMP280;14177;51.520;6.764;2023-08-06T10:30:30;100223.66;;;19.94
69785;BMP280;14177;51.520;6.764;2023-08-06T10:33:03;100225.97;;;19.98
69785;BMP280;14177;51.520;6.764;2023-08-06T10:35:40;100232.44;;;20.05
69785;BMP280;14177;51.520;6.764;2023-08-06T10:40:48;100225.16;;;20.20
69785;BMP280;14177;51.520;6.764;2023-08-06T10:43:30;100234.25;;;20.27
69785;BMP280;14177;51.520;6.764;2023-08-06T10:46:04;100233.78;;;20.33
69785;BMP280;14177;51.520;6.764;2023-08-06T10:48:41;100228.97;;;20.38
69785;BMP280;14177;51.520;6.764;2023-08-06T10:51:10;100233.75;;;20.44
69785;BMP280;14177;51.520;6.764;2023-08-06T10:53:46;100237.09;;;20.46
69785;BMP280;14177;51.520;6.764;2023-08-06T10:56:22;100249.22;;;20.48
69785;BMP280;14177;51.520;6.764;2023-08-06T10:58:55;100255.69;;;20.22
69785;BMP280;14177;51.520;6.764;2023-08-06T11:01:24;100256.13;;;19.83
69785;BMP280;14177;51.520;6.764;2023-08-06T11:03:51;100268.72;;;19.46
69785;BMP280;14177;51.520;6.764;2023-08-06T11:06:22;100276.47;;;19.13
69785;BMP280;14177;51.520;6.764;2023-08-06T11:08:52;100286.72;;;18.81
69785;BMP280;14177;51.520;6.764;2023-08-06T11:11:21;100287.00;;;18.53
69785;BMP280;14177;51.520;6.764;2023-08-06T11:13:51;100281.16;;;18.13
69785;BMP280;14177;51.520;6.764;2023-08-06T11:16:22;100281.16;;;17.88
69785;BMP280;14177;51.520;6.764;2023-08-06T11:18:51;100286.38;;;17.63
69785;BMP280;14177;51.520;6.764;2023-08-06T11:21:21;100285.81;;;17.45
69785;BMP280;14177;51.520;6.764;2023-08-06T11:23:48;100291.41;;;17.27
69785;BMP280;14177;51.520;6.764;2023-08-06T11:26:20;100292.00;;;17.18
69785;BMP280;14177;51.520;6.764;2023-08-06T11:28:47;100305.97;;;17.18
69785;BMP280;14177;51.520;6.764;2023-08-06T11:31:27;100296.59;;;17.14
69785;BMP280;14177;51.520;6.764;2023-08-06T11:33:56;100297.16;;;17.19
69785;BMP280;14177;51.520;6.764;2023-08-06T11:36:40;100308.50;;;17.20
69785;BMP280;14177;51.520;6.764;2023-08-06T11:39:09;100305.53;;;17.12
69785;BMP280;14177;51.520;6.764;2023-08-06T11:41:41;100310.59;;;17.15
69785;BMP280;14177;51.520;6.764;2023-08-06T11:44:23;100322.97;;;17.13
69785;BMP280;14177;51.520;6.764;2023-08-06T11:46:58;100321.66;;;17.06
69785;BMP280;14177;51.520;6.764;2023-08-06T11:52:22;100326.56;;;16.98
69785;BMP280;14177;51.520;6.764;2023-08-06T11:55:10;100328.25;;;16.99
69785;BMP280;14177;51.520;6.764;2023-08-06T11:57:55;100327.31;;;17.00
69785;BMP280;14177;51.520;6.764;2023-08-06T12:03:29;100340.34;;;17.02
69785;BMP280;14177;51.520;6.764;2023-08-06T12:06:06;100340.22;;;17.03
69785;BMP280;14177;51.520;6.764;2023-08-06T12:08:34;100339.84;;;17.09
69785;BMP280;14177;51.520;6.764;2023-08-06T12:11:01;100340.97;;;17.05
69785;BMP280;14177;51.520;6.764;2023-08-06T12:13:28;100353.91;;;17.08
69785;BMP280;14177;51.520;6.764;2023-08-06T12:15:55;100358.84;;;17.12
69785;BMP280;14177;51.520;6.764;2023-08-06T12:18:24;100351.72;;;17.14
69785;BMP280;14177;51.520;6.764;2023-08-06T12:20:51;100357.44;;;17.21
69785;BMP280;14177;51.520;6.764;2023-08-06T12:23:18;100360.06;;;17.21
69785;BMP280;14177;51.520;6.764;2023-08-06T12:25:45;100360.81;;;17.23
69785;BMP280;14177;51.520;6.764;2023-08-06T12:28:12;100362.56;;;17.22
69785;BMP280;14177;51.520;6.764;2023-08-06T12:30:39;100359.31;;;17.19
69785;BMP280;14177;51.520;6.764;2023-08-06T12:33:10;100359.13;;;17.22
69785;BMP280;14177;51.520;6.764;2023-08-06T12:35:37;100371.94;;;17.26
69785;BMP280;14177;51.520;6.764;2023-08-06T12:38:05;100370.91;;;17.29
69785;BMP280;14177;51.520;6.764;2023-08-06T12:40:32;100369.03;;;17.31
69785;BMP280;14177;51.520;6.764;2023-08-06T12:43:05;100389.66;;;17.37
69785;BMP280;14177;51.520;6.764;2023-08-06T12:45:33;100389.75;;;17.35
69785;BMP280;14177;51.520;6.764;2023-08-06T12:48:00;100373.72;;;17.40
69785;BMP280;14177;51.520;6.764;2023-08-06T12:50:27;100394.72;;;17.40
69785;BMP280;14177;51.520;6.764;2023-08-06T12:52:54;100387.28;;;17.46
69785;BMP280;14177;51.520;6.764;2023-08-06T12:55:21;100391.19;;;17.53
69785;BMP280;14177;51.520;6.764;2023-08-06T12:57:48;100391.63;;;17.60
69785;BMP280;14177;51.520;6.764;2023-08-06T13:00:26;100392.06;;;17.66
69785;BMP280;14177;51.520;6.764;2023-08-06T13:02:53;100397.66;;;17.74
69785;BMP280;14177;51.520;6.764;2023-08-06T13:05:21;100400.63;;;17.82
69785;BMP280;14177;51.520;6.764;2023-08-06T13:07:49;100402.00;;;17.88
69785;BMP280;14177;51.520;6.764;2023-08-06T13:10:16;100407.13;;;17.89
69785;BMP280;14177;51.520;6.764;2023-08-06T13:12:44;100414.94;;;17.91
69785;BMP280;14177;51.520;6.764;2023-08-06T13:15:11;100412.72;;;17.97
69785;BMP280;14177;51.520;6.764;2023-08-06T13:17:38;100421.06;;;18.04
69785;BMP280;14177;51.520;6.764;2023-08-06T13:20:06;100415.91;;;18.02
69785;BMP280;14177;51.520;6.764;2023-08-06T13:22:33;100429.34;;;17.98
69785;BMP280;14177;51.520;6.764;2023-08-06T13:25:00;100424.91;;;17.86
69785;BMP280;14177;51.520;6.764;2023-08-06T13:27:28;100414.78;;;17.80
69785;BMP280;14177;51.520;6.764;2023-08-06T13:29:55;100426.59;;;17.87
69785;BMP280;14177;51.520;6.764;2023-08-06T13:32:22;100429.56;;;17.95
69785;BMP280;14177;51.520;6.764;2023-08-06T13:34:50;100424.69;;;17.89
69785;BMP280;14177;51.520;6.764;2023-08-06T13:37:16;100436.53;;;17.69
69785;BMP280;14177;51.520;6.764;2023-08-06T13:39:44;100440.50;;;17.62
69785;BMP280;14177;51.520;6.764;2023-08-06T13:42:11;100432.06;;;17.57
69785;BMP280;14177;51.520;6.764;2023-08-06T13:44:37;100443.31;;;17.59
69785;BMP280;14177;51.520;6.764;2023-08-06T13:47:04;100447.31;;;17.65
69785;BMP280;14177;51.520;6.764;2023-08-06T13:49:31;100448.41;;;17.75
69785;BMP280;14177;51.520;6.764;2023-08-06T13:51:58;100452.31;;;17.82
69785;BMP280;14177;51.520;6.764;2023-08-06T13:54:45;100463.97;;;17.78
69785;BMP280;14177;51.520;6.764;2023-08-06T13:57:12;100465.66;;;17.79
69785;BMP280;14177;51.520;6.764;2023-08-06T13:59:39;100457.69;;;17.80
69785;BMP280;14177;51.520;6.764;2023-08-06T14:02:07;100460.59;;;17.76
69785;BMP280;14177;51.520;6.764;2023-08-06T14:04:35;100466.41;;;17.81
69785;BMP280;14177;51.520;6.764;2023-08-06T14:07:02;100462.31;;;17.89
69785;BMP280;14177;51.520;6.764;2023-08-06T14:09:29;100472.53;;;17.94
69785;BMP280;14177;51.520;6.764;2023-08-06T14:11:57;100473.28;;;17.96
69785;BMP280;14177;51.520;6.764;2023-08-06T14:14:24;100481.91;;;17.98
69785;BMP280;14177;51.520;6.764;2023-08-06T14:16:53;100483.19;;;18.05
69785;BMP280;14177;51.520;6.764;2023-08-06T14:19:22;100491.41;;;18.13
69785;BMP280;14177;51.520;6.764;2023-08-06T14:21:52;100492.69;;;18.20
69785;BMP280;14177;51.520;6.764;2023-08-06T14:24:19;100489.75;;;18.12